sensor_id;sensor_type;location;lat;lon;timestamp;P1;durP1;ratioP1;P2;durP2;ratioP2
57443;SDS011;43289;52.962;6.196;2023-05-10T00:01:23;13.02;;;8.63;;
57443;SDS011;43289;52.962;6.196;2023-05-10T00:03:54;21.95;;;12.60;;
57443;SDS011;43289;52.962;6.196;2023-05-10T00:06:20;17.27;;;10.32;;
57443;SDS011;43289;52.962;6.196;2023-05-10T00:08:46;18.63;;;11.50;;
57443;SDS011;43289;52.962;6.196;2023-05-10T00:11:12;18.10;;;11.02;;
57443;SDS011;43289;52.962;6.196;2023-05-10T00:13:38;21.83;;;12.60;;
57443;SDS011;43289;52.962;6.196;2023-05-10T00:16:15;21.23;;;12.13;;
57443;SDS011;43289;52.962;6.196;2023-05-10T00:18:41;22.85;;;12.95;;
57443;SDS011;43289;52.962;6.196;2023-05-10T00:21:07;26.63;;;14.45;;
57443;SDS011;43289;52.962;6.196;2023-05-10T00:23:33;29.15;;;15.27;;
57443;SDS011;43289;52.962;6.196;2023-05-10T00:25:59;30.90;;;16.30;;
57443;SDS011;43289;52.962;6.196;2023-05-10T00:28:26;25.30;;;15.05;;
57443;SDS011;43289;52.962;6.196;2023-05-10T00:30:53;27.92;;;15.48;;
57443;SDS011;43289;52.962;6.196;2023-05-10T00:33:19;50.13;;;19.98;;
57443;SDS011;43289;52.962;6.196;2023-05-10T00:35:45;58.40;;;21.08;;
57443;SDS011;43289;52.962;6.196;2023-05-10T00:38:11;35.85;;;19.45;;
57443;SDS011;43289;52.962;6.196;2023-05-10T00:40:37;27.33;;;17.02;;
57443;SDS011;43289;52.962;6.196;2023-05-10T00:43:02;24.17;;;14.27;;
57443;SDS011;43289;52.962;6.196;2023-05-10T00:45:29;24.83;;;13.82;;
57443;SDS011;43289;52.962;6.196;2023-05-10T00:47:55;24.42;;;13.02;;
57443;SDS011;43289;52.962;6.196;2023-05-10T00:50:21;24.73;;;14.55;;
57443;SDS011;43289;52.962;6.196;2023-05-10T00:52:48;22.30;;;13.95;;
57443;SDS011;43289;52.962;6.196;2023-05-10T00:55:14;24.50;;;14.43;;
57443;SDS011;43289;52.962;6.196;2023-05-10T00:57:40;24.80;;;13.88;;
57443;SDS011;43289;52.962;6.196;2023-05-10T01:00:07;24.98;;;14.57;;
57443;SDS011;43289;52.962;6.196;2023-05-10T01:02:33;19.45;;;11.88;;
57443;SDS011;43289;52.962;6.196;2023-05-10T01:05:00;22.98;;;12.65;;
57443;SDS011;43289;52.962;6.196;2023-05-10T01:07:28;25.20;;;13.15;;
57443;SDS011;43289;52.962;6.196;2023-05-10T01:09:54;22.58;;;13.43;;
57443;SDS011;43289;52.962;6.196;2023-05-10T01:12:20;34.58;;;17.02;;
57443;SDS011;43289;52.962;6.196;2023-05-10T01:14:46;24.27;;;14.13;;
57443;SDS011;43289;52.962;6.196;2023-05-10T01:17:30;27.35;;;14.32;;
57443;SDS011;43289;52.962;6.196;2023-05-10T01:19:56;21.45;;;12.48;;
57443;SDS011;43289;52.962;6.196;2023-05-10T01:25:54;18.98;;;11.35;;
57443;SDS011;43289;52.962;6.196;2023-05-10T01:35:30;23.08;;;13.15;;
57443;SDS011;43289;52.962;6.196;2023-05-10T01:40:41;22.10;;;12.60;;
57443;SDS011;43289;52.962;6.196;2023-05-10T01:43:11;18.75;;;12.35;;
57443;SDS011;43289;52.962;6.196;2023-05-10T01:45:49;16.67;;;11.43;;
57443;SDS011;43289;52.962;6.196;2023-05-10T01:48:19;18.70;;;10.15;;
57443;SDS011;43289;52.962;6.196;2023-05-10T01:50:46;17.77;;;10.50;;
57443;SDS011;43289;52.962;6.196;2023-05-10T01:53:12;14.02;;;10.27;;
57443;SDS011;43289;52.962;6.196;2023-05-10T01:55:45;15.48;;;9.75;;
57443;SDS011;43289;52.962;6.196;2023-05-10T02:01:10;15.18;;;9.82;;
57443;SDS011;43289;52.962;6.196;2023-05-10T02:03:41;14.73;;;9.90;;
57443;SDS011;43289;52.962;6.196;2023-05-10T02:06:08;15.20;;;9.38;;
57443;SDS011;43289;52.962;6.196;2023-05-10T02:08:36;16.00;;;9.25;;
57443;SDS011;43289;52.962;6.196;2023-05-10T02:11:02;15.98;;;8.95;;
57443;SDS011;43289;52.962;6.196;2023-05-10T02:13:29;12.40;;;9.05;;
57443;SDS011;43289;52.962;6.196;2023-05-10T02:15:57;14.57;;;8.85;;
57443;SDS011;43289;52.962;6.196;2023-05-10T02:18:23;22.95;;;11.13;;
57443;SDS011;43289;52.962;6.196;2023-05-10T02:20:49;16.08;;;8.80;;
57443;SDS011;43289;52.962;6.196;2023-05-10T02:23:16;15.80;;;9.65;;
57443;SDS011;43289;52.962;6.196;2023-05-10T02:25:43;13.27;;;9.13;;
57443;SDS011;43289;52.962;6.196;2023-05-10T02:28:09;17.63;;;10.15;;
57443;SDS011;43289;52.962;6.196;2023-05-10T02:30:36;15.73;;;9.90;;
57443;SDS011;43289;52.962;6.196;2023-05-10T02:33:03;15.07;;;9.95;;
57443;SDS011;43289;52.962;6.196;2023-05-10T02:35:29;15.45;;;9.18;;
57443;SDS011;43289;52.962;6.196;2023-05-10T02:37:58;14.88;;;9.50;;
57443;SDS011;43289;52.962;6.196;2023-05-10T02:40:24;13.00;;;8.32;;
57443;SDS011;43289;52.962;6.196;2023-05-10T02:42:52;14.35;;;8.75;;
57443;SDS011;43289;52.962;6.196;2023-05-10T02:45:21;11.23;;;7.57;;
57443;SDS011;43289;52.962;6.196;2023-05-10T02:47:47;12.00;;;8.23;;
57443;SDS011;43289;52.962;6.196;2023-05-10T02:50:14;12.75;;;8.05;;
57443;SDS011;43289;52.962;6.196;2023-05-10T02:52:41;14.48;;;8.52;;
57443;SDS011;43289;52.962;6.196;2023-05-10T02:55:09;10.38;;;7.97;;
57443;SDS011;43289;52.962;6.196;2023-05-10T02:57:35;13.25;;;7.93;;
57443;SDS011;43289;52.962;6.196;2023-05-10T03:00:05;11.60;;;7.82;;
57443;SDS011;43289;52.962;6.196;2023-05-10T03:02:32;11.75;;;7.57;;
57443;SDS011;43289;52.962;6.196;2023-05-10T03:05:02;11.68;;;7.22;;
57443;SDS011;43289;52.962;6.196;2023-05-10T03:07:28;11.32;;;7.15;;
57443;SDS011;43289;52.962;6.196;2023-05-10T03:09:54;12.63;;;7.43;;
57443;SDS011;43289;52.962;6.196;2023-05-10T03:15:33;12.27;;;7.95;;
57443;SDS011;43289;52.962;6.196;2023-05-10T03:17:40;12.73;;;8.60;;
57443;SDS011;43289;52.962;6.196;2023-05-10T03:20:11;13.15;;;7.95;;
57443;SDS011;43289;52.962;6.196;2023-05-10T03:22:47;17.42;;;9.27;;
57443;SDS011;43289;52.962;6.196;2023-05-10T03:25:13;11.70;;;7.60;;
57443;SDS011;43289;52.962;6.196;2023-05-10T03:27:41;12.63;;;7.35;;
57443;SDS011;43289;52.962;6.196;2023-05-10T03:30:08;13.25;;;8.60;;
57443;SDS011;43289;52.962;6.196;2023-05-10T03:32:36;9.57;;;7.13;;
57443;SDS011;43289;52.962;6.196;2023-05-10T03:35:08;13.13;;;8.18;;
57443;SDS011;43289;52.962;6.196;2023-05-10T03:37:36;10.98;;;7.38;;
57443;SDS011;43289;52.962;6.196;2023-05-10T03:40:02;10.70;;;7.60;;
57443;SDS011;43289;52.962;6.196;2023-05-10T03:42:28;15.38;;;9.18;;
57443;SDS011;43289;52.962;6.196;2023-05-10T03:44:54;13.75;;;9.27;;
57443;SDS011;43289;52.962;6.196;2023-05-10T03:47:20;11.10;;;8.35;;
57443;SDS011;43289;52.962;6.196;2023-05-10T03:49:46;11.35;;;7.93;;
57443;SDS011;43289;52.962;6.196;2023-05-10T03:52:12;11.98;;;8.05;;
57443;SDS011;43289;52.962;6.196;2023-05-10T03:54:38;11.32;;;7.88;;
57443;SDS011;43289;52.962;6.196;2023-05-10T03:57:04;11.68;;;8.27;;
57443;SDS011;43289;52.962;6.196;2023-05-10T03:59:35;10.60;;;7.65;;
57443;SDS011;43289;52.962;6.196;2023-05-10T04:02:01;10.48;;;7.60;;
57443;SDS011;43289;52.962;6.196;2023-05-10T04:04:30;10.43;;;7.85;;
57443;SDS011;43289;52.962;6.196;2023-05-10T04:06:56;14.65;;;9.40;;
57443;SDS011;43289;52.962;6.196;2023-05-10T04:09:22;11.48;;;7.75;;
57443;SDS011;43289;52.962;6.196;2023-05-10T04:11:48;11.82;;;8.30;;
57443;SDS011;43289;52.962;6.196;2023-05-10T04:14:14;12.07;;;8.98;;
57443;SDS011;43289;52.962;6.196;2023-05-10T04:16:41;11.55;;;8.20;;
57443;SDS011;43289;52.962;6.196;2023-05-10T04:19:07;9.63;;;7.82;;
57443;SDS011;43289;52.962;6.196;2023-05-10T04:21:33;9.45;;;7.38;;
57443;SDS011;43289;52.962;6.196;2023-05-10T04:23:59;9.63;;;6.70;;
57443;SDS011;43289;52.962;6.196;2023-05-10T04:26:25;9.07;;;6.70;;
57443;SDS011;43289;52.962;6.196;2023-05-10T04:28:51;10.85;;;8.18;;
57443;SDS011;43289;52.962;6.196;2023-05-10T04:31:17;8.48;;;6.70;;
57443;SDS011;43289;52.962;6.196;2023-05-10T04:33:43;11.80;;;6.78;;
57443;SDS011;43289;52.962;6.196;2023-05-10T04:36:09;7.95;;;6.32;;
57443;SDS011;43289;52.962;6.196;2023-05-10T04:38:35;9.35;;;7.05;;
57443;SDS011;43289;52.962;6.196;2023-05-10T04:41:05;8.98;;;6.53;;
57443;SDS011;43289;52.962;6.196;2023-05-10T04:43:31;8.48;;;6.18;;
57443;SDS011;43289;52.962;6.196;2023-05-10T04:45:57;10.65;;;7.40;;
57443;SDS011;43289;52.962;6.196;2023-05-10T04:48:23;10.43;;;7.30;;
57443;SDS011;43289;52.962;6.196;2023-05-10T04:50:49;11.93;;;7.22;;
57443;SDS011;43289;52.962;6.196;2023-05-10T04:53:15;9.30;;;6.68;;
57443;SDS011;43289;52.962;6.196;2023-05-10T04:55:41;9.23;;;6.97;;
57443;SDS011;43289;52.962;6.196;2023-05-10T04:58:07;9.55;;;6.70;;
57443;SDS011;43289;52.962;6.196;2023-05-10T05:00:33;8.32;;;6.35;;
57443;SDS011;43289;52.962;6.196;2023-05-10T05:02:59;8.68;;;6.35;;
57443;SDS011;43289;52.962;6.196;2023-05-10T05:05:25;10.95;;;6.95;;
57443;SDS011;43289;52.962;6.196;2023-05-10T05:07:51;9.82;;;6.50;;
57443;SDS011;43289;52.962;6.196;2023-05-10T05:10:17;11.63;;;6.55;;
57443;SDS011;43289;52.962;6.196;2023-05-10T05:12:43;10.05;;;7.13;;
57443;SDS011;43289;52.962;6.196;2023-05-10T05:15:09;8.20;;;5.70;;
57443;SDS011;43289;52.962;6.196;2023-05-10T05:17:36;7.95;;;5.93;;
57443;SDS011;43289;52.962;6.196;2023-05-10T05:20:02;7.25;;;5.45;;
57443;SDS011;43289;52.962;6.196;2023-05-10T05:22:28;8.95;;;6.35;;
57443;SDS011;43289;52.962;6.196;2023-05-10T05:24:54;8.10;;;5.85;;
57443;SDS011;43289;52.962;6.196;2023-05-10T05:27:20;8.23;;;5.88;;
57443;SDS011;43289;52.962;6.196;2023-05-10T05:29:49;8.48;;;6.13;;
57443;SDS011;43289;52.962;6.196;2023-05-10T05:32:16;11.63;;;6.20;;
57443;SDS011;43289;52.962;6.196;2023-05-10T05:34:44;9.80;;;6.40;;
57443;SDS011;43289;52.962;6.196;2023-05-10T05:37:17;7.75;;;5.38;;
57443;SDS011;43289;52.962;6.196;2023-05-10T05:39:43;8.95;;;5.78;;
57443;SDS011;43289;52.962;6.196;2023-05-10T05:42:09;10.13;;;6.63;;
57443;SDS011;43289;52.962;6.196;2023-05-10T05:44:35;7.22;;;5.10;;
57443;SDS011;43289;52.962;6.196;2023-05-10T05:47:16;9.98;;;5.50;;
57443;SDS011;43289;52.962;6.196;2023-05-10T05:49:42;7.65;;;5.28;;
57443;SDS011;43289;52.962;6.196;2023-05-10T05:52:10;9.00;;;5.25;;
57443;SDS011;43289;52.962;6.196;2023-05-10T05:54:36;5.80;;;4.18;;
57443;SDS011;43289;52.962;6.196;2023-05-10T05:57:02;7.43;;;4.22;;
57443;SDS011;43289;52.962;6.196;2023-05-10T05:59:30;7.00;;;3.67;;
57443;SDS011;43289;52.962;6.196;2023-05-10T06:01:55;8.52;;;3.95;;
57443;SDS011;43289;52.962;6.196;2023-05-10T06:04:21;7.43;;;4.35;;
57443;SDS011;43289;52.962;6.196;2023-05-10T06:06:48;7.00;;;4.03;;
57443;SDS011;43289;52.962;6.196;2023-05-10T06:09:14;6.85;;;4.43;;
57443;SDS011;43289;52.962;6.196;2023-05-10T06:11:40;7.90;;;4.40;;
57443;SDS011;43289;52.962;6.196;2023-05-10T06:14:06;9.80;;;4.90;;
57443;SDS011;43289;52.962;6.196;2023-05-10T06:16:33;7.57;;;4.75;;
57443;SDS011;43289;52.962;6.196;2023-05-10T06:18:59;6.40;;;4.28;;
57443;SDS011;43289;52.962;6.196;2023-05-10T06:21:38;7.35;;;4.97;;
57443;SDS011;43289;52.962;6.196;2023-05-10T06:24:05;7.55;;;4.90;;
57443;SDS011;43289;52.962;6.196;2023-05-10T06:26:31;10.80;;;5.80;;
57443;SDS011;43289;52.962;6.196;2023-05-10T06:31:40;9.57;;;5.85;;
57443;SDS011;43289;52.962;6.196;2023-05-10T06:34:06;10.23;;;5.70;;
57443;SDS011;43289;52.962;6.196;2023-05-10T06:36:33;10.23;;;5.93;;
57443;SDS011;43289;52.962;6.196;2023-05-10T06:38:59;9.48;;;5.97;;
57443;SDS011;43289;52.962;6.196;2023-05-10T06:41:30;10.48;;;5.90;;
57443;SDS011;43289;52.962;6.196;2023-05-10T06:43:56;12.10;;;6.63;;
57443;SDS011;43289;52.962;6.196;2023-05-10T06:46:27;11.02;;;6.40;;
57443;SDS011;43289;52.962;6.196;2023-05-10T06:48:58;8.52;;;5.70;;
57443;SDS011;43289;52.962;6.196;2023-05-10T06:51:24;9.73;;;6.13;;
57443;SDS011;43289;52.962;6.196;2023-05-10T06:53:50;8.45;;;5.75;;
57443;SDS011;43289;52.962;6.196;2023-05-10T06:56:16;9.18;;;6.15;;
57443;SDS011;43289;52.962;6.196;2023-05-10T06:58:42;7.80;;;5.43;;
57443;SDS011;43289;52.962;6.196;2023-05-10T07:01:08;9.98;;;5.47;;
57443;SDS011;43289;52.962;6.196;2023-05-10T07:03:34;10.48;;;6.28;;
57443;SDS011;43289;52.962;6.196;2023-05-10T07:06:03;10.55;;;5.85;;
57443;SDS011;43289;52.962;6.196;2023-05-10T07:08:35;10.63;;;5.97;;
57443;SDS011;43289;52.962;6.196;2023-05-10T07:11:05;9.35;;;5.72;;
57443;SDS011;43289;52.962;6.196;2023-05-10T07:13:35;8.88;;;5.57;;
57443;SDS011;43289;52.962;6.196;2023-05-10T07:16:01;9.13;;;5.72;;
57443;SDS011;43289;52.962;6.196;2023-05-10T07:18:28;7.88;;;5.22;;
57443;SDS011;43289;52.962;6.196;2023-05-10T07:20:54;9.60;;;5.47;;
57443;SDS011;43289;52.962;6.196;2023-05-10T07:23:22;8.70;;;5.35;;
57443;SDS011;43289;52.962;6.196;2023-05-10T07:25:48;7.85;;;5.18;;
57443;SDS011;43289;52.962;6.196;2023-05-10T07:28:16;11.98;;;5.50;;
57443;SDS011;43289;52.962;6.196;2023-05-10T07:30:42;10.63;;;5.55;;
57443;SDS011;43289;52.962;6.196;2023-05-10T07:33:09;7.88;;;4.95;;
57443;SDS011;43289;52.962;6.196;2023-05-10T07:35:35;8.40;;;4.97;;
57443;SDS011;43289;52.962;6.196;2023-05-10T07:38:01;8.05;;;5.07;;
57443;SDS011;43289;52.962;6.196;2023-05-10T07:40:27;8.25;;;5.15;;
57443;SDS011;43289;52.962;6.196;2023-05-10T07:42:53;7.07;;;4.45;;
57443;SDS011;43289;52.962;6.196;2023-05-10T07:45:19;8.18;;;4.20;;
57443;SDS011;43289;52.962;6.196;2023-05-10T07:47:45;6.30;;;3.80;;
57443;SDS011;43289;52.962;6.196;2023-05-10T07:50:11;6.10;;;3.40;;
57443;SDS011;43289;52.962;6.196;2023-05-10T07:52:38;5.38;;;3.30;;
57443;SDS011;43289;52.962;6.196;2023-05-10T07:55:04;5.90;;;3.92;;
57443;SDS011;43289;52.962;6.196;2023-05-10T07:57:30;5.53;;;3.80;;
57443;SDS011;43289;52.962;6.196;2023-05-10T07:59:56;5.78;;;3.42;;
57443;SDS011;43289;52.962;6.196;2023-05-10T08:02:22;5.55;;;3.55;;
57443;SDS011;43289;52.962;6.196;2023-05-10T08:04:48;8.00;;;3.90;;
57443;SDS011;43289;52.962;6.196;2023-05-10T08:07:14;8.15;;;4.00;;
57443;SDS011;43289;52.962;6.196;2023-05-10T08:09:39;6.55;;;3.30;;
57443;SDS011;43289;52.962;6.196;2023-05-10T08:12:05;6.30;;;3.08;;
57443;SDS011;43289;52.962;6.196;2023-05-10T08:14:31;4.80;;;2.95;;
57443;SDS011;43289;52.962;6.196;2023-05-10T08:16:56;4.85;;;3.28;;
57443;SDS011;43289;52.962;6.196;2023-05-10T08:19:22;6.10;;;3.40;;
57443;SDS011;43289;52.962;6.196;2023-05-10T08:21:48;5.70;;;3.08;;
57443;SDS011;43289;52.962;6.196;2023-05-10T08:24:14;4.55;;;2.90;;
57443;SDS011;43289;52.962;6.196;2023-05-10T08:26:39;7.00;;;3.17;;
57443;SDS011;43289;52.962;6.196;2023-05-10T08:29:05;5.43;;;3.65;;
57443;SDS011;43289;52.962;6.196;2023-05-10T08:31:34;5.82;;;3.47;;
57443;SDS011;43289;52.962;6.196;2023-05-10T08:33:59;5.05;;;3.22;;
57443;SDS011;43289;52.962;6.196;2023-05-10T08:36:25;5.15;;;3.25;;
57443;SDS011;43289;52.962;6.196;2023-05-10T08:38:51;5.80;;;3.30;;
57443;SDS011;43289;52.962;6.196;2023-05-10T08:41:18;6.30;;;3.35;;
57443;SDS011;43289;52.962;6.196;2023-05-10T08:43:45;6.35;;;3.70;;
57443;SDS011;43289;52.962;6.196;2023-05-10T08:46:13;6.60;;;3.83;;
57443;SDS011;43289;52.962;6.196;2023-05-10T08:48:43;6.22;;;3.80;;
57443;SDS011;43289;52.962;6.196;2023-05-10T08:51:09;6.50;;;3.85;;
57443;SDS011;43289;52.962;6.196;2023-05-10T08:53:45;5.65;;;3.97;;
57443;SDS011;43289;52.962;6.196;2023-05-10T08:56:10;6.38;;;3.90;;
57443;SDS011;43289;52.962;6.196;2023-05-10T08:58:37;7.00;;;3.72;;
57443;SDS011;43289;52.962;6.196;2023-05-10T09:01:03;6.53;;;3.50;;
57443;SDS011;43289;52.962;6.196;2023-05-10T09:03:30;5.63;;;3.58;;
57443;SDS011;43289;52.962;6.196;2023-05-10T09:05:56;5.68;;;3.60;;
57443;SDS011;43289;52.962;6.196;2023-05-10T09:08:25;5.05;;;3.15;;
57443;SDS011;43289;52.962;6.196;2023-05-10T09:10:51;5.85;;;3.33;;
57443;SDS011;43289;52.962;6.196;2023-05-10T09:13:18;7.72;;;4.00;;
57443;SDS011;43289;52.962;6.196;2023-05-10T09:15:44;7.53;;;3.33;;
57443;SDS011;43289;52.962;6.196;2023-05-10T09:18:10;5.22;;;3.45;;
57443;SDS011;43289;52.962;6.196;2023-05-10T09:20:36;5.07;;;3.30;;
57443;SDS011;43289;52.962;6.196;2023-05-10T09:23:02;5.65;;;3.47;;
57443;SDS011;43289;52.962;6.196;2023-05-10T09:25:28;7.10;;;4.22;;
57443;SDS011;43289;52.962;6.196;2023-05-10T09:27:53;4.90;;;3.33;;
57443;SDS011;43289;52.962;6.196;2023-05-10T09:30:26;6.25;;;4.18;;
57443;SDS011;43289;52.962;6.196;2023-05-10T09:32:56;6.53;;;4.60;;
57443;SDS011;43289;52.962;6.196;2023-05-10T09:35:24;5.95;;;3.80;;
57443;SDS011;43289;52.962;6.196;2023-05-10T09:37:53;6.28;;;4.53;;
57443;SDS011;43289;52.962;6.196;2023-05-10T09:40:22;6.50;;;4.30;;
57443;SDS011;43289;52.962;6.196;2023-05-10T09:43:02;8.63;;;4.38;;
57443;SDS011;43289;52.962;6.196;2023-05-10T09:45:32;5.45;;;3.70;;
57443;SDS011;43289;52.962;6.196;2023-05-10T09:47:58;5.95;;;4.85;;
57443;SDS011;43289;52.962;6.196;2023-05-10T09:50:25;6.40;;;4.50;;
57443;SDS011;43289;52.962;6.196;2023-05-10T09:52:56;8.25;;;4.70;;
57443;SDS011;43289;52.962;6.196;2023-05-10T09:55:26;7.13;;;4.78;;
57443;SDS011;43289;52.962;6.196;2023-05-10T09:58:04;7.40;;;4.35;;
57443;SDS011;43289;52.962;6.196;2023-05-10T10:00:35;7.63;;;5.15;;
57443;SDS011;43289;52.962;6.196;2023-05-10T10:03:02;7.13;;;4.93;;
57443;SDS011;43289;52.962;6.196;2023-05-10T10:05:32;7.38;;;4.10;;
57443;SDS011;43289;52.962;6.196;2023-05-10T10:07:58;6.40;;;3.83;;
57443;SDS011;43289;52.962;6.196;2023-05-10T10:10:25;6.97;;;4.55;;
57443;SDS011;43289;52.962;6.196;2023-05-10T10:12:51;6.10;;;4.32;;
57443;SDS011;43289;52.962;6.196;2023-05-10T10:15:17;8.38;;;4.47;;
57443;SDS011;43289;52.962;6.196;2023-05-10T10:17:44;6.03;;;4.07;;
57443;SDS011;43289;52.962;6.196;2023-05-10T10:20:10;8.38;;;5.18;;
57443;SDS011;43289;52.962;6.196;2023-05-10T10:22:36;8.35;;;4.90;;
57443;SDS011;43289;52.962;6.196;2023-05-10T10:25:03;6.13;;;4.25;;
57443;SDS011;43289;52.962;6.196;2023-05-10T10:30:04;7.43;;;4.15;;
57443;SDS011;43289;52.962;6.196;2023-05-10T10:32:38;6.25;;;4.32;;
57443;SDS011;43289;52.962;6.196;2023-05-10T10:35:08;5.75;;;4.00;;
57443;SDS011;43289;52.962;6.196;2023-05-10T10:37:44;8.20;;;4.18;;
57443;SDS011;43289;52.962;6.196;2023-05-10T10:40:23;5.65;;;3.70;;
57443;SDS011;43289;52.962;6.196;2023-05-10T10:42:50;5.82;;;3.63;;
57443;SDS011;43289;52.962;6.196;2023-05-10T10:45:16;5.32;;;3.55;;
57443;SDS011;43289;52.962;6.196;2023-05-10T10:47:42;9.02;;;3.90;;
57443;SDS011;43289;52.962;6.196;2023-05-10T10:50:08;8.38;;;4.53;;
57443;SDS011;43289;52.962;6.196;2023-05-10T10:52:38;6.47;;;3.88;;
57443;SDS011;43289;52.962;6.196;2023-05-10T10:57:53;5.07;;;3.75;;
57443;SDS011;43289;52.962;6.196;2023-05-10T11:00:32;5.95;;;4.05;;
57443;SDS011;43289;52.962;6.196;2023-05-10T11:03:00;6.90;;;3.60;;
57443;SDS011;43289;52.962;6.196;2023-05-10T11:05:45;11.45;;;4.18;;
57443;SDS011;43289;52.962;6.196;2023-05-10T11:08:12;6.35;;;4.50;;
57443;SDS011;43289;52.962;6.196;2023-05-10T11:10:38;6.28;;;4.30;;
57443;SDS011;43289;52.962;6.196;2023-05-10T11:13:05;6.95;;;4.13;;
57443;SDS011;43289;52.962;6.196;2023-05-10T11:15:35;6.50;;;4.22;;
57443;SDS011;43289;52.962;6.196;2023-05-10T11:18:20;6.75;;;4.20;;
57443;SDS011;43289;52.962;6.196;2023-05-10T11:20:57;6.05;;;3.88;;
57443;SDS011;43289;52.962;6.196;2023-05-10T11:23:29;6.22;;;3.72;;
57443;SDS011;43289;52.962;6.196;2023-05-10T11:25:55;5.88;;;2.70;;
57443;SDS011;43289;52.962;6.196;2023-05-10T11:28:21;7.13;;;3.50;;
57443;SDS011;43289;52.962;6.196;2023-05-10T11:30:47;6.38;;;4.43;;
57443;SDS011;43289;52.962;6.196;2023-05-10T11:33:16;5.50;;;3.50;;
57443;SDS011;43289;52.962;6.196;2023-05-10T11:35:44;5.82;;;3.20;;
57443;SDS011;43289;52.962;6.196;2023-05-10T11:38:11;5.90;;;3.50;;
57443;SDS011;43289;52.962;6.196;2023-05-10T11:40:37;6.47;;;3.88;;
57443;SDS011;43289;52.962;6.196;2023-05-10T11:43:03;5.47;;;3.70;;
57443;SDS011;43289;52.962;6.196;2023-05-10T11:45:33;10.00;;;5.55;;
57443;SDS011;43289;52.962;6.196;2023-05-10T11:48:00;11.65;;;6.38;;
57443;SDS011;43289;52.962;6.196;2023-05-10T11:50:27;9.23;;;6.82;;
57443;SDS011;43289;52.962;6.196;2023-05-10T11:52:54;10.18;;;7.93;;
57443;SDS011;43289;52.962;6.196;2023-05-10T11:55:20;9.77;;;6.38;;
57443;SDS011;43289;52.962;6.196;2023-05-10T11:57:47;14.88;;;7.25;;
57443;SDS011;43289;52.962;6.196;2023-05-10T12:00:13;11.60;;;7.53;;
57443;SDS011;43289;52.962;6.196;2023-05-10T12:02:39;12.20;;;8.43;;
57443;SDS011;43289;52.962;6.196;2023-05-10T12:05:06;12.02;;;8.32;;
57443;SDS011;43289;52.962;6.196;2023-05-10T12:07:32;10.65;;;7.30;;
57443;SDS011;43289;52.962;6.196;2023-05-10T12:10:13;12.50;;;8.02;;
57443;SDS011;43289;52.962;6.196;2023-05-10T12:12:46;13.82;;;9.48;;
57443;SDS011;43289;52.962;6.196;2023-05-10T12:15:20;11.88;;;8.38;;
57443;SDS011;43289;52.962;6.196;2023-05-10T12:17:46;15.40;;;8.13;;
57443;SDS011;43289;52.962;6.196;2023-05-10T12:20:13;11.75;;;7.53;;
57443;SDS011;43289;52.962;6.196;2023-05-10T12:22:40;11.82;;;7.95;;
57443;SDS011;43289;52.962;6.196;2023-05-10T12:25:07;12.60;;;7.78;;
57443;SDS011;43289;52.962;6.196;2023-05-10T12:27:34;10.05;;;7.28;;
57443;SDS011;43289;52.962;6.196;2023-05-10T12:30:00;11.73;;;7.35;;
57443;SDS011;43289;52.962;6.196;2023-05-10T12:32:41;11.35;;;7.20;;
57443;SDS011;43289;52.962;6.196;2023-05-10T12:35:07;11.63;;;7.43;;
57443;SDS011;43289;52.962;6.196;2023-05-10T12:37:33;11.88;;;7.65;;
57443;SDS011;43289;52.962;6.196;2023-05-10T12:40:04;11.15;;;7.65;;
57443;SDS011;43289;52.962;6.196;2023-05-10T12:42:31;11.60;;;8.38;;
57443;SDS011;43289;52.962;6.196;2023-05-10T12:44:57;12.57;;;7.88;;
57443;SDS011;43289;52.962;6.196;2023-05-10T12:47:23;13.20;;;7.60;;
57443;SDS011;43289;52.962;6.196;2023-05-10T12:49:49;12.05;;;8.32;;
57443;SDS011;43289;52.962;6.196;2023-05-10T12:52:16;12.23;;;8.10;;
57443;SDS011;43289;52.962;6.196;2023-05-10T12:54:42;11.00;;;8.02;;
57443;SDS011;43289;52.962;6.196;2023-05-10T12:57:08;10.40;;;7.80;;
57443;SDS011;43289;52.962;6.196;2023-05-10T12:59:34;13.00;;;8.55;;
57443;SDS011;43289;52.962;6.196;2023-05-10T13:02:00;9.63;;;6.63;;
57443;SDS011;43289;52.962;6.196;2023-05-10T13:04:26;9.18;;;6.65;;
57443;SDS011;43289;52.962;6.196;2023-05-10T13:06:52;9.65;;;5.90;;
57443;SDS011;43289;52.962;6.196;2023-05-10T13:09:18;9.48;;;6.90;;
57443;SDS011;43289;52.962;6.196;2023-05-10T13:11:45;11.13;;;7.18;;
57443;SDS011;43289;52.962;6.196;2023-05-10T13:14:12;10.77;;;6.75;;
57443;SDS011;43289;52.962;6.196;2023-05-10T13:16:39;11.20;;;6.85;;
57443;SDS011;43289;52.962;6.196;2023-05-10T13:19:05;12.02;;;6.57;;
57443;SDS011;43289;52.962;6.196;2023-05-10T13:21:30;11.40;;;7.65;;
57443;SDS011;43289;52.962;6.196;2023-05-10T13:23:56;12.35;;;6.38;;
57443;SDS011;43289;52.962;6.196;2023-05-10T13:26:21;13.20;;;6.68;;
57443;SDS011;43289;52.962;6.196;2023-05-10T13:28:47;9.25;;;5.88;;
57443;SDS011;43289;52.962;6.196;2023-05-10T13:31:13;9.85;;;7.00;;
57443;SDS011;43289;52.962;6.196;2023-05-10T13:33:39;11.63;;;6.95;;
57443;SDS011;43289;52.962;6.196;2023-05-10T13:36:06;10.30;;;6.20;;
57443;SDS011;43289;52.962;6.196;2023-05-10T13:38:31;9.32;;;6.85;;
57443;SDS011;43289;52.962;6.196;2023-05-10T13:40:57;10.88;;;7.40;;
57443;SDS011;43289;52.962;6.196;2023-05-10T13:43:23;9.02;;;6.07;;
57443;SDS011;43289;52.962;6.196;2023-05-10T13:45:49;11.57;;;7.47;;
57443;SDS011;43289;52.962;6.196;2023-05-10T13:48:14;9.25;;;6.65;;
57443;SDS011;43289;52.962;6.196;2023-05-10T13:50:40;9.82;;;6.43;;
57443;SDS011;43289;52.962;6.196;2023-05-10T13:53:06;8.55;;;6.28;;
57443;SDS011;43289;52.962;6.196;2023-05-10T13:55:31;9.20;;;6.43;;
57443;SDS011;43289;52.962;6.196;2023-05-10T13:58:14;8.90;;;6.40;;
57443;SDS011;43289;52.962;6.196;2023-05-10T14:00:42;8.02;;;5.80;;
57443;SDS011;43289;52.962;6.196;2023-05-10T14:03:07;11.32;;;6.00;;
57443;SDS011;43289;52.962;6.196;2023-05-10T14:05:34;8.10;;;5.40;;
57443;SDS011;43289;52.962;6.196;2023-05-10T14:07:59;8.68;;;5.35;;
57443;SDS011;43289;52.962;6.196;2023-05-10T14:10:25;7.32;;;4.68;;
57443;SDS011;43289;52.962;6.196;2023-05-10T14:12:50;8.75;;;5.35;;
57443;SDS011;43289;52.962;6.196;2023-05-10T14:15:16;7.82;;;5.13;;
57443;SDS011;43289;52.962;6.196;2023-05-10T14:17:42;8.18;;;5.28;;
57443;SDS011;43289;52.962;6.196;2023-05-10T14:20:08;8.93;;;5.05;;
57443;SDS011;43289;52.962;6.196;2023-05-10T14:22:34;8.80;;;5.13;;
57443;SDS011;43289;52.962;6.196;2023-05-10T14:24:59;7.50;;;5.63;;
57443;SDS011;43289;52.962;6.196;2023-05-10T14:27:26;7.70;;;5.53;;
57443;SDS011;43289;52.962;6.196;2023-05-10T14:29:52;7.97;;;5.03;;
57443;SDS011;43289;52.962;6.196;2023-05-10T14:32:18;8.52;;;5.40;;
57443;SDS011;43289;52.962;6.196;2023-05-10T14:34:43;7.13;;;4.78;;
57443;SDS011;43289;52.962;6.196;2023-05-10T14:37:10;8.35;;;6.10;;
57443;SDS011;43289;52.962;6.196;2023-05-10T14:39:36;10.73;;;5.15;;
57443;SDS011;43289;52.962;6.196;2023-05-10T14:42:11;7.47;;;5.13;;
57443;SDS011;43289;52.962;6.196;2023-05-10T14:44:37;8.30;;;5.47;;
57443;SDS011;43289;52.962;6.196;2023-05-10T14:47:02;8.32;;;5.30;;
57443;SDS011;43289;52.962;6.196;2023-05-10T14:49:29;7.85;;;5.20;;
57443;SDS011;43289;52.962;6.196;2023-05-10T14:51:55;7.30;;;4.45;;
57443;SDS011;43289;52.962;6.196;2023-05-10T14:54:21;5.80;;;4.43;;
57443;SDS011;43289;52.962;6.196;2023-05-10T14:56:47;8.70;;;4.38;;
57443;SDS011;43289;52.962;6.196;2023-05-10T14:59:14;5.30;;;3.05;;
57443;SDS011;43289;52.962;6.196;2023-05-10T15:01:42;7.65;;;4.32;;
57443;SDS011;43289;52.962;6.196;2023-05-10T15:04:08;7.18;;;4.85;;
57443;SDS011;43289;52.962;6.196;2023-05-10T15:06:34;7.93;;;4.70;;
57443;SDS011;43289;52.962;6.196;2023-05-10T15:09:00;8.57;;;4.35;;